sensor_id;sensor_type;location;lat;lon;timestamp;temperature;humidity
1948;DHT22;974;52.400;9.818;2023-01-26T00:00:54;-0.80;99.90
1948;DHT22;974;52.400;9.818;2023-01-26T00:03:20;-0.60;99.90
1948;DHT22;974;52.400;9.818;2023-01-26T00:05:46;-0.60;99.90
1948;DHT22;974;52.400;9.818;2023-01-26T00:08:12;-0.60;99.90
1948;DHT22;974;52.400;9.818;2023-01-26T00:10:39;-0.70;99.90
1948;DHT22;974;52.400;9.818;2023-01-26T00:13:07;-0.50;99.90
1948;DHT22;974;52.400;9.818;2023-01-26T00:15:33;-0.60;99.90
1948;DHT22;974;52.400;9.818;2023-01-26T00:18:00;-0.70;99.90
1948;DHT22;974;52.400;9.818;2023-01-26T00:20:26;-0.60;99.90
1948;DHT22;974;52.400;9.818;2023-01-26T00:22:52;-0.50;99.90
1948;DHT22;974;52.400;9.818;2023-01-26T00:25:17;-0.40;99.90
1948;DHT22;974;52.400;9.818;2023-01-26T00:27:43;-0.40;99.90
1948;DHT22;974;52.400;9.818;2023-01-26T00:30:09;-0.30;99.90
1948;DHT22;974;52.400;9.818;2023-01-26T00:32:34;-0.50;99.90
1948;DHT22;974;52.400;9.818;2023-01-26T00:35:00;-0.40;99.90
1948;DHT22;974;52.400;9.818;2023-01-26T00:37:26;-0.30;99.90
1948;DHT22;974;52.400;9.818;2023-01-26T00:39:51;-0.30;99.90
1948;DHT22;974;52.400;9.818;2023-01-26T00:42:17;-0.30;99.90
1948;DHT22;974;52.400;9.818;2023-01-26T00:44:42;-0.20;99.90
1948;DHT22;974;52.400;9.818;2023-01-26T00:47:10;-0.10;99.90
1948;DHT22;974;52.400;9.818;2023-01-26T00:49:35;-0.10;99.90
1948;DHT22;974;52.400;9.818;2023-01-26T00:52:01;-0.10;99.90
1948;DHT22;974;52.400;9.818;2023-01-26T00:54:29;0.00;99.90
1948;DHT22;974;52.400;9.818;2023-01-26T00:56:55;0.00;99.90
1948;DHT22;974;52.400;9.818;2023-01-26T00:59:21;0.00;99.90
1948;DHT22;974;52.400;9.818;2023-01-26T01:01:47;-0.10;99.90
1948;DHT22;974;52.400;9.818;2023-01-26T01:04:13;-0.10;99.90
1948;DHT22;974;52.400;9.818;2023-01-26T01:06:39;-0.10;99.90
1948;DHT22;974;52.400;9.818;2023-01-26T01:09:04;-0.10;99.90
1948;DHT22;974;52.400;9.818;2023-01-26T01:11:30;-0.10;99.90
1948;DHT22;974;52.400;9.818;2023-01-26T01:13:55;-0.20;99.90
1948;DHT22;974;52.400;9.818;2023-01-26T01:16:21;-0.20;99.90
1948;DHT22;974;52.400;9.818;2023-01-26T01:18:47;-0.10;99.90
1948;DHT22;974;52.400;9.818;2023-01-26T01:21:15;-0.10;99.90
1948;DHT22;974;52.400;9.818;2023-01-26T01:23:41;-0.10;99.90
1948;DHT22;974;52.400;9.818;2023-01-26T01:26:07;0.00;99.90
1948;DHT22;974;52.400;9.818;2023-01-26T01:28:36;0.00;99.90
1948;DHT22;974;52.400;9.818;2023-01-26T01:31:12;0.00;99.90
1948;DHT22;974;52.400;9.818;2023-01-26T01:33:38;0.10;99.90
1948;DHT22;974;52.400;9.818;2023-01-26T01:36:06;0.00;99.90
1948;DHT22;974;52.400;9.818;2023-01-26T01:38:32;0.10;99.90
1948;DHT22;974;52.400;9.818;2023-01-26T01:40:58;0.10;99.90
1948;DHT22;974;52.400;9.818;2023-01-26T01:43:24;0.00;99.90
1948;DHT22;974;52.400;9.818;2023-01-26T01:45:51;0.00;99.90
1948;DHT22;974;52.400;9.818;2023-01-26T01:48:22;0.10;99.90
1948;DHT22;974;52.400;9.818;2023-01-26T01:50:52;0.20;99.90
1948;DHT22;974;52.400;9.818;2023-01-26T01:53:26;0.10;99.90
1948;DHT22;974;52.400;9.818;2023-01-26T01:55:56;0.10;99.90
1948;DHT22;974;52.400;9.818;2023-01-26T01:58:22;0.10;99.90
1948;DHT22;974;52.400;9.818;2023-01-26T02:00:48;0.00;99.90
1948;DHT22;974;52.400;9.818;2023-01-26T02:03:14;0.20;99.90
1948;DHT22;974;52.400;9.818;2023-01-26T02:06:13;0.10;99.90
1948;DHT22;974;52.400;9.818;2023-01-26T02:08:42;0.10;99.90
1948;DHT22;974;52.400;9.818;2023-01-26T02:11:12;0.10;99.90
1948;DHT22;974;52.400;9.818;2023-01-26T02:13:40;0.10;99.90
1948;DHT22;974;52.400;9.818;2023-01-26T02:16:06;0.10;99.90
1948;DHT22;974;52.400;9.818;2023-01-26T02:18:31;0.10;99.90
1948;DHT22;974;52.400;9.818;2023-01-26T02:21:00;0.20;99.90
1948;DHT22;974;52.400;9.818;2023-01-26T02:26:12;0.20;99.90
1948;DHT22;974;52.400;9.818;2023-01-26T02:28:40;0.20;99.90
1948;DHT22;974;52.400;9.818;2023-01-26T02:31:07;-0.10;99.90
1948;DHT22;974;52.400;9.818;2023-01-26T02:33:33;0.10;99.90
1948;DHT22;974;52.400;9.818;2023-01-26T02:35:59;0.10;99.90
1948;DHT22;974;52.400;9.818;2023-01-26T02:38:33;0.10;99.90
1948;DHT22;974;52.400;9.818;2023-01-26T02:41:10;0.10;99.90
1948;DHT22;974;52.400;9.818;2023-01-26T02:43:37;0.20;99.90
1948;DHT22;974;52.400;9.818;2023-01-26T02:46:03;0.20;99.90
1948;DHT22;974;52.400;9.818;2023-01-26T02:48:29;0.20;99.90
1948;DHT22;974;52.400;9.818;2023-01-26T02:51:13;0.10;99.90
1948;DHT22;974;52.400;9.818;2023-01-26T02:53:38;0.20;99.90
1948;DHT22;974;52.400;9.818;2023-01-26T02:56:04;0.20;99.90
1948;DHT22;974;52.400;9.818;2023-01-26T02:58:30;0.20;99.90
1948;DHT22;974;52.400;9.818;2023-01-26T03:00:55;0.10;99.90
1948;DHT22;974;52.400;9.818;2023-01-26T03:03:26;0.00;99.90
1948;DHT22;974;52.400;9.818;2023-01-26T03:06:06;0.00;99.90
1948;DHT22;974;52.400;9.818;2023-01-26T03:08:32;0.00;99.90
1948;DHT22;974;52.400;9.818;2023-01-26T03:10:57;0.00;99.90
1948;DHT22;974;52.400;9.818;2023-01-26T03:13:23;0.00;99.90
1948;DHT22;974;52.400;9.818;2023-01-26T03:15:48;0.10;99.90
1948;DHT22;974;52.400;9.818;2023-01-26T03:18:20;0.00;99.90
1948;DHT22;974;52.400;9.818;2023-01-26T03:21:11;0.00;99.90
1948;DHT22;974;52.400;9.818;2023-01-26T03:23:56;0.00;99.90
1948;DHT22;974;52.400;9.818;2023-01-26T03:26:40;-0.40;99.90
1948;DHT22;974;52.400;9.818;2023-01-26T03:29:24;-0.10;99.90
1948;DHT22;974;52.400;9.818;2023-01-26T03:31:53;0.00;99.90
1948;DHT22;974;52.400;9.818;2023-01-26T03:34:19;0.00;99.90
1948;DHT22;974;52.400;9.818;2023-01-26T03:36:45;0.00;99.90
1948;DHT22;974;52.400;9.818;2023-01-26T03:39:11;0.10;99.90
1948;DHT22;974;52.400;9.818;2023-01-26T03:41:57;0.10;99.90
1948;DHT22;974;52.400;9.818;2023-01-26T03:44:41;0.10;99.90
1948;DHT22;974;52.400;9.818;2023-01-26T03:47:25;0.10;99.90
1948;DHT22;974;52.400;9.818;2023-01-26T03:50:10;0.00;99.90
1948;DHT22;974;52.400;9.818;2023-01-26T03:52:54;0.20;99.90
1948;DHT22;974;52.400;9.818;2023-01-26T03:55:39;0.20;99.90
1948;DHT22;974;52.400;9.818;2023-01-26T03:58:23;0.20;99.90
1948;DHT22;974;52.400;9.818;2023-01-26T04:00:49;0.20;99.90
1948;DHT22;974;52.400;9.818;2023-01-26T04:03:14;0.20;99.90
1948;DHT22;974;52.400;9.818;2023-01-26T04:05:58;0.20;99.90
1948;DHT22;974;52.400;9.818;2023-01-26T04:08:43;0.30;99.90
1948;DHT22;974;52.400;9.818;2023-01-26T04:11:10;0.20;99.90
1948;DHT22;974;52.400;9.818;2023-01-26T04:13:36;0.20;99.90
1948;DHT22;974;52.400;9.818;2023-01-26T04:16:20;0.10;99.90
1948;DHT22;974;52.400;9.818;2023-01-26T04:19:04;0.20;99.90
1948;DHT22;974;52.400;9.818;2023-01-26T04:21:48;0.20;99.90
1948;DHT22;974;52.400;9.818;2023-01-26T04:24:13;0.20;99.90
1948;DHT22;974;52.400;9.818;2023-01-26T04:26:40;0.30;99.90
1948;DHT22;974;52.400;9.818;2023-01-26T04:29:08;0.30;99.90
1948;DHT22;974;52.400;9.818;2023-01-26T04:31:34;0.30;99.90
1948;DHT22;974;52.400;9.818;2023-01-26T04:34:01;0.20;99.90
1948;DHT22;974;52.400;9.818;2023-01-26T04:36:26;0.20;99.90
1948;DHT22;974;52.400;9.818;2023-01-26T04:38:52;0.10;99.90
1948;DHT22;974;52.400;9.818;2023-01-26T04:41:18;0.20;99.90
1948;DHT22;974;52.400;9.818;2023-01-26T04:43:44;0.20;99.90
1948;DHT22;974;52.400;9.818;2023-01-26T04:46:09;0.30;99.90
1948;DHT22;974;52.400;9.818;2023-01-26T04:48:35;0.30;99.90
1948;DHT22;974;52.400;9.818;2023-01-26T04:51:05;0.30;99.90
1948;DHT22;974;52.400;9.818;2023-01-26T04:53:32;0.30;99.90
1948;DHT22;974;52.400;9.818;2023-01-26T04:55:57;0.10;99.90
1948;DHT22;974;52.400;9.818;2023-01-26T04:58:23;0.20;99.90
1948;DHT22;974;52.400;9.818;2023-01-26T05:00:50;0.10;99.90
1948;DHT22;974;52.400;9.818;2023-01-26T05:03:16;0.10;99.90
1948;DHT22;974;52.400;9.818;2023-01-26T05:05:42;0.10;99.90
1948;DHT22;974;52.400;9.818;2023-01-26T05:08:07;0.10;99.90
1948;DHT22;974;52.400;9.818;2023-01-26T05:10:33;0.00;99.90
1948;DHT22;974;52.400;9.818;2023-01-26T05:12:58;0.00;99.90
1948;DHT22;974;52.400;9.818;2023-01-26T05:15:24;0.00;99.90
1948;DHT22;974;52.400;9.818;2023-01-26T05:17:50;0.10;99.90
1948;DHT22;974;52.400;9.818;2023-01-26T05:20:16;0.10;99.90
1948;DHT22;974;52.400;9.818;2023-01-26T05:22:42;0.10;99.90
1948;DHT22;974;52.400;9.818;2023-01-26T05:25:08;0.10;99.90
1948;DHT22;974;52.400;9.818;2023-01-26T05:27:33;-0.10;99.90
1948;DHT22;974;52.400;9.818;2023-01-26T05:29:59;0.10;99.90
1948;DHT22;974;52.400;9.818;2023-01-26T05:32:28;0.10;99.90
1948;DHT22;974;52.400;9.818;2023-01-26T05:34:54;0.10;99.90
1948;DHT22;974;52.400;9.818;2023-01-26T05:37:20;0.20;99.90
1948;DHT22;974;52.400;9.818;2023-01-26T05:39:46;0.20;99.90
1948;DHT22;974;52.400;9.818;2023-01-26T05:42:11;0.30;99.90
1948;DHT22;974;52.400;9.818;2023-01-26T05:44:37;0.20;99.90
1948;DHT22;974;52.400;9.818;2023-01-26T05:47:03;0.30;99.90
1948;DHT22;974;52.400;9.818;2023-01-26T05:49:28;0.30;99.90
1948;DHT22;974;52.400;9.818;2023-01-26T05:51:54;0.30;99.90
1948;DHT22;974;52.400;9.818;2023-01-26T05:54:19;0.20;99.90
1948;DHT22;974;52.400;9.818;2023-01-26T05:56:44;0.40;99.90
1948;DHT22;974;52.400;9.818;2023-01-26T05:59:10;0.30;99.90
1948;DHT22;974;52.400;9.818;2023-01-26T06:01:35;0.30;99.90
1948;DHT22;974;52.400;9.818;2023-01-26T06:04:01;0.30;99.90
1948;DHT22;974;52.400;9.818;2023-01-26T06:06:27;0.30;99.90
1948;DHT22;974;52.400;9.818;2023-01-26T06:08:52;0.20;99.90
1948;DHT22;974;52.400;9.818;2023-01-26T06:11:17;0.40;99.90
1948;DHT22;974;52.400;9.818;2023-01-26T06:13:43;0.30;99.90
1948;DHT22;974;52.400;9.818;2023-01-26T06:16:09;0.40;99.90
1948;DHT22;974;52.400;9.818;2023-01-26T06:18:34;0.40;99.90
1948;DHT22;974;52.400;9.818;2023-01-26T06:21:00;0.30;99.90
1948;DHT22;974;52.400;9.818;2023-01-26T06:23:26;0.30;99.90
1948;DHT22;974;52.400;9.818;2023-01-26T06:25:52;0.10;99.90
1948;DHT22;974;52.400;9.818;2023-01-26T06:28:17;0.10;99.90
1948;DHT22;974;52.400;9.818;2023-01-26T06:30:44;0.20;99.90
1948;DHT22;974;52.400;9.818;2023-01-26T06:33:10;0.10;99.90
1948;DHT22;974;52.400;9.818;2023-01-26T06:35:35;0.10;99.90
1948;DHT22;974;52.400;9.818;2023-01-26T06:38:01;0.20;99.90
1948;DHT22;974;52.400;9.818;2023-01-26T06:40:27;0.10;99.90
1948;DHT22;974;52.400;9.818;2023-01-26T06:42:52;0.00;99.90
1948;DHT22;974;52.400;9.818;2023-01-26T06:45:18;0.20;99.90
1948;DHT22;974;52.400;9.818;2023-01-26T06:47:48;0.20;99.90
1948;DHT22;974;52.400;9.818;2023-01-26T06:50:17;0.20;99.90
1948;DHT22;974;52.400;9.818;2023-01-26T06:52:46;0.20;99.90
1948;DHT22;974;52.400;9.818;2023-01-26T06:55:21;0.20;99.90
1948;DHT22;974;52.400;9.818;2023-01-26T06:57:48;0.20;99.90
1948;DHT22;974;52.400;9.818;2023-01-26T07:00:14;0.30;99.90
1948;DHT22;974;52.400;9.818;2023-01-26T07:02:39;0.40;99.90
1948;DHT22;974;52.400;9.818;2023-01-26T07:05:05;0.40;99.90
1948;DHT22;974;52.400;9.818;2023-01-26T07:07:31;0.40;99.90
1948;DHT22;974;52.400;9.818;2023-01-26T07:09:56;0.40;99.90
1948;DHT22;974;52.400;9.818;2023-01-26T07:12:22;0.50;99.90
1948;DHT22;974;52.400;9.818;2023-01-26T07:14:47;0.50;99.90
1948;DHT22;974;52.400;9.818;2023-01-26T07:17:15;0.30;99.90
1948;DHT22;974;52.400;9.818;2023-01-26T07:19:41;0.20;99.90
1948;DHT22;974;52.400;9.818;2023-01-26T07:22:06;0.30;99.90
1948;DHT22;974;52.400;9.818;2023-01-26T07:24:32;0.40;99.90
1948;DHT22;974;52.400;9.818;2023-01-26T07:26:57;0.50;99.90
1948;DHT22;974;52.400;9.818;2023-01-26T07:29:23;0.50;99.90
1948;DHT22;974;52.400;9.818;2023-01-26T07:31:49;0.10;99.90
1948;DHT22;974;52.400;9.818;2023-01-26T07:34:15;0.40;99.90
1948;DHT22;974;52.400;9.818;2023-01-26T07:36:40;0.40;99.90
1948;DHT22;974;52.400;9.818;2023-01-26T07:39:06;0.60;99.90
1948;DHT22;974;52.400;9.818;2023-01-26T07:41:32;0.50;99.90
1948;DHT22;974;52.400;9.818;2023-01-26T07:43:57;0.40;99.90
1948;DHT22;974;52.400;9.818;2023-01-26T07:46:23;0.60;99.90
1948;DHT22;974;52.400;9.818;2023-01-26T07:48:49;0.40;99.90
1948;DHT22;974;52.400;9.818;2023-01-26T07:51:14;0.50;99.90
1948;DHT22;974;52.400;9.818;2023-01-26T07:53:40;0.60;99.90
1948;DHT22;974;52.400;9.818;2023-01-26T07:56:17;0.60;99.90
1948;DHT22;974;52.400;9.818;2023-01-26T07:58:52;0.60;99.90
1948;DHT22;974;52.400;9.818;2023-01-26T08:01:18;0.60;99.90
1948;DHT22;974;52.400;9.818;2023-01-26T08:03:44;0.60;99.90
1948;DHT22;974;52.400;9.818;2023-01-26T08:06:10;0.70;99.90
1948;DHT22;974;52.400;9.818;2023-01-26T08:08:36;0.50;99.90
1948;DHT22;974;52.400;9.818;2023-01-26T08:11:05;0.70;99.90
1948;DHT22;974;52.400;9.818;2023-01-26T08:13:30;0.80;99.90
1948;DHT22;974;52.400;9.818;2023-01-26T08:16:07;0.80;99.90
1948;DHT22;974;52.400;9.818;2023-01-26T08:18:36;0.80;99.90
1948;DHT22;974;52.400;9.818;2023-01-26T08:21:02;0.90;99.90
1948;DHT22;974;52.400;9.818;2023-01-26T08:23:27;0.90;99.90
1948;DHT22;974;52.400;9.818;2023-01-26T08:25:53;0.90;99.90
1948;DHT22;974;52.400;9.818;2023-01-26T08:28:18;1.00;99.90
1948;DHT22;974;52.400;9.818;2023-01-26T08:30:44;1.00;99.90
1948;DHT22;974;52.400;9.818;2023-01-26T08:33:09;1.00;99.90
1948;DHT22;974;52.400;9.818;2023-01-26T08:35:35;0.90;99.90
1948;DHT22;974;52.400;9.818;2023-01-26T08:38:00;1.00;99.90
1948;DHT22;974;52.400;9.818;2023-01-26T08:40:26;0.90;99.90
1948;DHT22;974;52.400;9.818;2023-01-26T08:42:51;0.90;99.90
1948;DHT22;974;52.400;9.818;2023-01-26T08:45:17;0.90;99.90
1948;DHT22;974;52.400;9.818;2023-01-26T08:47:43;0.80;99.90
1948;DHT22;974;52.400;9.818;2023-01-26T08:50:09;0.80;99.90
1948;DHT22;974;52.400;9.818;2023-01-26T08:52:35;0.80;99.90
1948;DHT22;974;52.400;9.818;2023-01-26T08:55:01;0.80;99.90
1948;DHT22;974;52.400;9.818;2023-01-26T08:57:28;0.70;99.90
1948;DHT22;974;52.400;9.818;2023-01-26T08:59:54;0.80;99.90
1948;DHT22;974;52.400;9.818;2023-01-26T09:02:19;0.80;99.90
1948;DHT22;974;52.400;9.818;2023-01-26T09:04:45;0.80;99.90
1948;DHT22;974;52.400;9.818;2023-01-26T09:07:10;0.90;99.90
1948;DHT22;974;52.400;9.818;2023-01-26T09:09:36;0.90;99.90
1948;DHT22;974;52.400;9.818;2023-01-26T09:12:01;0.80;99.90
1948;DHT22;974;52.400;9.818;2023-01-26T09:14:27;0.90;99.90
1948;DHT22;974;52.400;9.818;2023-01-26T09:16:53;0.80;99.90
1948;DHT22;974;52.400;9.818;2023-01-26T09:19:18;0.70;99.90
1948;DHT22;974;52.400;9.818;2023-01-26T09:21:43;0.70;99.90
1948;DHT22;974;52.400;9.818;2023-01-26T09:24:09;0.80;99.90
1948;DHT22;974;52.400;9.818;2023-01-26T09:26:34;0.80;99.90
1948;DHT22;974;52.400;9.818;2023-01-26T09:29:00;0.80;99.90
1948;DHT22;974;52.400;9.818;2023-01-26T09:31:26;0.80;99.90
1948;DHT22;974;52.400;9.818;2023-01-26T09:33:51;0.80;99.90
1948;DHT22;974;52.400;9.818;2023-01-26T09:36:17;0.80;99.90
1948;DHT22;974;52.400;9.818;2023-01-26T09:38:42;0.80;99.90
1948;DHT22;974;52.400;9.818;2023-01-26T09:41:32;0.70;99.90
1948;DHT22;974;52.400;9.818;2023-01-26T09:44:08;0.50;99.90
1948;DHT22;974;52.400;9.818;2023-01-26T09:47:01;0.60;99.90
1948;DHT22;974;52.400;9.818;2023-01-26T09:49:44;0.70;99.90
1948;DHT22;974;52.400;9.818;2023-01-26T09:52:32;0.70;99.90
1948;DHT22;974;52.400;9.818;2023-01-26T09:55:01;0.80;99.90
1948;DHT22;974;52.400;9.818;2023-01-26T10:00:26;0.70;99.90
1948;DHT22;974;52.400;9.818;2023-01-26T10:05:49;1.00;99.90
1948;DHT22;974;52.400;9.818;2023-01-26T10:08:17;1.00;99.90
1948;DHT22;974;52.400;9.818;2023-01-26T10:10:59;1.10;99.90
1948;DHT22;974;52.400;9.818;2023-01-26T10:13:25;1.10;99.90
1948;DHT22;974;52.400;9.818;2023-01-26T10:15:56;0.90;99.90
1948;DHT22;974;52.400;9.818;2023-01-26T10:18:33;1.10;99.90
1948;DHT22;974;52.400;9.818;2023-01-26T10:21:02;1.10;99.90
1948;DHT22;974;52.400;9.818;2023-01-26T10:23:32;1.20;99.90
1948;DHT22;974;52.400;9.818;2023-01-26T10:26:14;1.10;99.90
1948;DHT22;974;52.400;9.818;2023-01-26T10:28:44;1.20;99.90
1948;DHT22;974;52.400;9.818;2023-01-26T10:31:20;1.30;99.90
1948;DHT22;974;52.400;9.818;2023-01-26T10:36:17;1.40;99.90
1948;DHT22;974;52.400;9.818;2023-01-26T10:38:44;1.20;99.90
1948;DHT22;974;52.400;9.818;2023-01-26T10:44:00;1.30;99.90
1948;DHT22;974;52.400;9.818;2023-01-26T10:46:36;1.40;99.90
1948;DHT22;974;52.400;9.818;2023-01-26T10:49:22;1.50;99.90
1948;DHT22;974;52.400;9.818;2023-01-26T10:52:18;1.30;99.90
1948;DHT22;974;52.400;9.818;2023-01-26T10:54:46;1.20;99.90
1948;DHT22;974;52.400;9.818;2023-01-26T10:57:16;1.10;99.90
1948;DHT22;974;52.400;9.818;2023-01-26T10:59:50;1.00;99.90
1948;DHT22;974;52.400;9.818;2023-01-26T11:02:18;1.10;99.90
1948;DHT22;974;52.400;9.818;2023-01-26T11:05:26;1.00;99.90
1948;DHT22;974;52.400;9.818;2023-01-26T11:07:55;1.00;99.90
1948;DHT22;974;52.400;9.818;2023-01-26T11:13:06;1.10;99.90
1948;DHT22;974;52.400;9.818;2023-01-26T11:15:38;1.10;99.90
1948;DHT22;974;52.400;9.818;2023-01-26T11:18:32;1.20;99.90
1948;DHT22;974;52.400;9.818;2023-01-26T11:21:15;1.20;99.90
1948;DHT22;974;52.400;9.818;2023-01-26T11:24:02;1.20;99.90
1948;DHT22;974;52.400;9.818;2023-01-26T11:26:39;1.40;99.90
1948;DHT22;974;52.400;9.818;2023-01-26T11:29:35;1.30;99.90
1948;DHT22;974;52.400;9.818;2023-01-26T11:37:40;1.60;99.90
1948;DHT22;974;52.400;9.818;2023-01-26T11:49:07;1.70;99.90
1948;DHT22;974;52.400;9.818;2023-01-26T11:55:09;1.60;99.90
1948;DHT22;974;52.400;9.818;2023-01-26T12:00:32;1.70;99.90
1948;DHT22;974;52.400;9.818;2023-01-26T12:03:04;1.70;99.90
1948;DHT22;974;52.400;9.818;2023-01-26T12:05:47;1.70;99.90
1948;DHT22;974;52.400;9.818;2023-01-26T12:08:21;1.70;99.90
1948;DHT22;974;52.400;9.818;2023-01-26T12:10:57;1.70;99.90
1948;DHT22;974;52.400;9.818;2023-01-26T12:13:45;1.60;99.90
1948;DHT22;974;52.400;9.818;2023-01-26T12:16:19;1.60;99.90
1948;DHT22;974;52.400;9.818;2023-01-26T12:18:55;1.60;99.90
1948;DHT22;974;52.400;9.818;2023-01-26T12:21:24;1.70;99.90
1948;DHT22;974;52.400;9.818;2023-01-26T12:24:02;1.40;99.90
1948;DHT22;974;52.400;9.818;2023-01-26T12:26:31;1.50;99.90
1948;DHT22;974;52.400;9.818;2023-01-26T12:29:05;1.50;99.90
1948;DHT22;974;52.400;9.818;2023-01-26T12:31:53;1.30;99.90
1948;DHT22;974;52.400;9.818;2023-01-26T12:34:28;1.30;99.90
1948;DHT22;974;52.400;9.818;2023-01-26T12:36:57;1.30;99.90
1948;DHT22;974;52.400;9.818;2023-01-26T12:39:43;1.30;99.90
1948;DHT22;974;52.400;9.818;2023-01-26T12:45:00;1.30;99.90
1948;DHT22;974;52.400;9.818;2023-01-26T12:47:33;1.40;99.90
1948;DHT22;974;52.400;9.818;2023-01-26T12:50:16;1.50;99.90
1948;DHT22;974;52.400;9.818;2023-01-26T12:52:52;1.40;99.90
1948;DHT22;974;52.400;9.818;2023-01-26T12:55:19;1.50;99.90
1948;DHT22;974;52.400;9.818;2023-01-26T12:57:53;1.50;99.90
1948;DHT22;974;52.400;9.818;2023-01-26T13:00:31;1.40;99.90
1948;DHT22;974;52.400;9.818;2023-01-26T13:03:21;1.20;99.90
1948;DHT22;974;52.400;9.818;2023-01-26T13:11:04;1.40;99.90
1948;DHT22;974;52.400;9.818;2023-01-26T13:13:55;1.40;99.90
1948;DHT22;974;52.400;9.818;2023-01-26T13:16:31;1.30;99.90
1948;DHT22;974;52.400;9.818;2023-01-26T13:18:59;1.30;99.90
1948;DHT22;974;52.400;9.818;2023-01-26T13:23:54;1.30;99.90
1948;DHT22;974;52.400;9.818;2023-01-26T13:26:40;1.40;99.90
1948;DHT22;974;52.400;9.818;2023-01-26T13:34:38;1.40;99.90
1948;DHT22;974;52.400;9.818;2023-01-26T13:37:12;1.30;99.90
1948;DHT22;974;52.400;9.818;2023-01-26T13:39:41;1.30;99.90
1948;DHT22;974;52.400;9.818;2023-01-26T13:42:21;1.40;99.90
1948;DHT22;974;52.400;9.818;2023-01-26T13:45:03;1.50;99.90
1948;DHT22;974;52.400;9.818;2023-01-26T13:47:38;1.30;99.90
1948;DHT22;974;52.400;9.818;2023-01-26T13:52:49;1.30;99.90
1948;DHT22;974;52.400;9.818;2023-01-26T13:55:23;1.20;99.90
1948;DHT22;974;52.400;9.818;2023-01-26T13:58:12;1.20;99.90
1948;DHT22;974;52.400;9.818;2023-01-26T14:00:38;1.10;99.90
1948;DHT22;974;52.400;9.818;2023-01-26T14:03:03;1.20;99.90
1948;DHT22;974;52.400;9.818;2023-01-26T14:05:30;1.20;99.90
1948;DHT22;974;52.400;9.818;2023-01-26T14:07:56;1.20;99.90
1948;DHT22;974;52.400;9.818;2023-01-26T14:10:22;1.30;99.90
1948;DHT22;974;52.400;9.818;2023-01-26T14:12:52;1.30;99.90
1948;DHT22;974;52.400;9.818;2023-01-26T14:15:26;1.20;99.90
1948;DHT22;974;52.400;9.818;2023-01-26T14:18:01;1.10;99.90
1948;DHT22;974;52.400;9.818;2023-01-26T14:20:33;1.20;99.90
1948;DHT22;974;52.400;9.818;2023-01-26T14:25:42;1.10;99.90
1948;DHT22;974;52.400;9.818;2023-01-26T14:28:25;1.20;99.90
1948;DHT22;974;52.400;9.818;2023-01-26T14:31:00;1.20;99.90
1948;DHT22;974;52.400;9.818;2023-01-26T14:33:26;1.30;99.90
1948;DHT22;974;52.400;9.818;2023-01-26T14:36:00;1.30;99.90
1948;DHT22;974;52.400;9.818;2023-01-26T14:38:28;1.20;99.90
1948;DHT22;974;52.400;9.818;2023-01-26T14:40:55;1.30;99.90
1948;DHT22;974;52.400;9.818;2023-01-26T14:43:22;1.20;99.90
1948;DHT22;974;52.400;9.818;2023-01-26T14:45:56;1.10;99.90
1948;DHT22;974;52.400;9.818;2023-01-26T14:48:27;1.20;99.90
1948;DHT22;974;52.400;9.818;2023-01-26T14:50:54;1.30;99.90
1948;DHT22;974;52.400;9.818;2023-01-26T14:53:21;1.30;99.90
1948;DHT22;974;52.400;9.818;2023-01-26T14:55:48;1.30;99.90
1948;DHT22;974;52.400;9.818;2023-01-26T14:58:20;1.40;99.90
1948;DHT22;974;52.400;9.818;2023-01-26T15:00:48;1.30;99.90
1948;DHT22;974;52.400;9.818;2023-01-26T15:03:22;1.40;99.90
1948;DHT22;974;52.400;9.818;2023-01-26T15:08:34;1.50;99.90
1948;DHT22;974;52.400;9.818;2023-01-26T15:11:01;1.50;99.90
1948;DHT22;974;52.400;9.818;2023-01-26T15:13:48;1.50;99.90
1948;DHT22;974;52.400;9.818;2023-01-26T15:16:21;1.50;99.90
1948;DHT22;974;52.400;9.818;2023-01-26T15:19:02;1.50;99.90
1948;DHT22;974;52.400;9.818;2023-01-26T15:21:38;1.40;99.90
1948;DHT22;974;52.400;9.818;2023-01-26T15:24:05;1.40;99.90
1948;DHT22;974;52.400;9.818;2023-01-26T15:26:32;1.50;99.90
1948;DHT22;974;52.400;9.818;2023-01-26T15:29:03;1.50;99.90
1948;DHT22;974;52.400;9.818;2023-01-26T15:31:33;1.50;99.90
1948;DHT22;974;52.400;9.818;2023-01-26T15:33:59;1.50;99.90
1948;DHT22;974;52.400;9.818;2023-01-26T15:36:59;1.40;99.90
1948;DHT22;974;52.400;9.818;2023-01-26T15:39:18;1.40;99.90
1948;DHT22;974;52.400;9.818;2023-01-26T15:42:31;1.40;99.90
1948;DHT22;974;52.400;9.818;2023-01-26T15:44:31;1.40;99.90
1948;DHT22;974;52.400;9.818;2023-01-26T15:46:56;1.40;99.90
1948;DHT22;974;52.400;9.818;2023-01-26T15:49:23;1.50;99.90
1948;DHT22;974;52.400;9.818;2023-01-26T15:51:49;1.60;99.90
1948;DHT22;974;52.400;9.818;2023-01-26T15:54:14;1.50;99.90
1948;DHT22;974;52.400;9.818;2023-01-26T15:56:40;1.50;99.90
1948;DHT22;974;52.400;9.818;2023-01-26T15:59:06;1.50;99.90
1948;DHT22;974;52.400;9.818;2023-01-26T16:01:31;1.50;99.90
1948;DHT22;974;52.400;9.818;2023-01-26T16:03:57;1.50;99.90
1948;DHT22;974;52.400;9.818;2023-01-26T16:06:28;1.50;99.90
1948;DHT22;974;52.400;9.818;2023-01-26T16:08:55;1.60;99.90
1948;DHT22;974;52.400;9.818;2023-01-26T16:11:23;1.50;99.90
1948;DHT22;974;52.400;9.818;2023-01-26T16:13:50;1.60;99.90
1948;DHT22;974;52.400;9.818;2023-01-26T16:16:17;1.60;99.90
1948;DHT22;974;52.400;9.818;2023-01-26T16:18:43;1.70;99.90
1948;DHT22;974;52.400;9.818;2023-01-26T16:23:40;1.70;99.90
1948;DHT22;974;52.400;9.818;2023-01-26T16:26:08;1.70;99.90
1948;DHT22;974;52.400;9.818;2023-01-26T16:28:35;1.70;99.90
1948;DHT22;974;52.400;9.818;2023-01-26T16:31:00;1.60;99.90
1948;DHT22;974;52.400;9.818;2023-01-26T16:33:26;1.80;99.90
1948;DHT22;974;52.400;9.818;2023-01-26T16:35:52;1.80;99.90
1948;DHT22;974;52.400;9.818;2023-01-26T16:38:18;1.80;99.90
1948;DHT22;974;52.400;9.818;2023-01-26T16:40:45;1.80;99.90
1948;DHT22;974;52.400;9.818;2023-01-26T16:43:23;1.80;99.90
1948;DHT22;974;52.400;9.818;2023-01-26T16:45:50;1.90;99.90
1948;DHT22;974;52.400;9.818;2023-01-26T16:48:16;1.90;99.90
1948;DHT22;974;52.400;9.818;2023-01-26T16:50:42;1.90;99.90
1948;DHT22;974;52.400;9.818;2023-01-26T16:55:49;2.00;99.90
1948;DHT22;974;52.400;9.818;2023-01-26T16:58:14;2.00;99.90
1948;DHT22;974;52.400;9.818;2023-01-26T17:00:40;2.00;99.90
1948;DHT22;974;52.400;9.818;2023-01-26T17:03:08;1.90;99.90
1948;DHT22;974;52.400;9.818;2023-01-26T17:05:36;2.00;99.90
1948;DHT22;974;52.400;9.818;2023-01-26T17:08:01;2.00;99.90
1948;DHT22;974;52.400;9.818;2023-01-26T17:10:27;2.00;99.90
1948;DHT22;974;52.400;9.818;2023-01-26T17:12:52;2.10;99.90
1948;DHT22;974;52.400;9.818;2023-01-26T17:15:18;2.00;99.90
1948;DHT22;974;52.400;9.818;2023-01-26T17:17:43;2.00;99.90
1948;DHT22;974;52.400;9.818;2023-01-26T17:20:11;2.10;99.90
1948;DHT22;974;52.400;9.818;2023-01-26T17:22:37;2.00;99.90
1948;DHT22;974;52.400;9.818;2023-01-26T17:25:03;2.10;99.90
1948;DHT22;974;52.400;9.818;2023-01-26T17:27:29;2.10;99.90
1948;DHT22;974;52.400;9.818;2023-01-26T17:29:54;2.10;99.90
1948;DHT22;974;52.400;9.818;2023-01-26T17:32:22;2.10;99.90
1948;DHT22;974;52.400;9.818;2023-01-26T17:34:51;2.10;99.90
1948;DHT22;974;52.400;9.818;2023-01-26T17:37:18;2.10;99.90
1948;DHT22;974;52.400;9.818;2023-01-26T17:39:44;2.20;99.90
1948;DHT22;974;52.400;9.818;2023-01-26T17:42:09;2.20;99.90
1948;DHT22;974;52.400;9.818;2023-01-26T17:44:35;2.10;99.90
1948;DHT22;974;52.400;9.818;2023-01-26T17:47:00;2.10;99.90
1948;DHT22;974;52.400;9.818;2023-01-26T17:49:26;2.10;99.90
1948;DHT22;974;52.400;9.818;2023-01-26T17:51:51;2.10;99.90
1948;DHT22;974;52.400;9.818;2023-01-26T17:54:17;2.00;99.90